Barkald — V7IM6 — position and weather

sailwx.info

Track history (hours):
 
Tides and Currents Weather Stations Pressure Air Temp Water Temp Dewpoint Dewpoint Depression Visibility Wind Speed Wind Dir Waves Ship Positions

Barkald

Last reported at 2015-Jan-26 17:34 UTC. Time now 2015-Jan-26 18:29 UTC.
Position N 41°04' W 073°15'.

Length 189 m; draft 7.3 m.

MMSI: 538002409.

Date/timePositionNaut miles runAvg speedWind from/ knotsBaromVisibWave heightAir tempDewpointWater temp
2015-Jan-26 17:34N 41°04' W 073°15'1010.1
2015-Jan-26 16:33N 41°06' W 073°02'1414.5
2015-Jan-26 15:33N 41°09' W 072°43'1413.9
2015-Jan-26 14:33N 41°10' W 072°25'1312.7
2015-Jan-26 13:34N 41°14' W 072°09'1111.5
2015-Jan-26 12:33N 41°14' W 071°53'1313.2
2015-Jan-26 11:33N 41°17' W 071°36'8 7.6
2015-Jan-26 10:33N 41°11' W 071°29'10 9.6
2015-Jan-26 09:33N 41°01' W 071°29'10 9.9
2015-Jan-26 08:33N 40°52' W 071°33'1010.0
2015-Jan-26 07:33N 40°42' W 071°36'1010.3
2015-Jan-26 06:33N 40°32' W 071°40'1111.1
2015-Jan-26 05:33N 40°23' W 071°49'1312.6
2015-Jan-26 04:33N 40°23' W 072°05'1212.5
2015-Jan-26 03:33N 40°23' W 072°22'1312.6
2015-Jan-26 02:33N 40°22' W 072°38'1612.7
2015-Jan-26 01:19N 40°22' W 072°59'1312.8
2015-Jan-26 00:18N 40°23' W 073°16'1212.1
2015-Jan-25 23:17N 40°24' W 073°32'7 9.7
2015-Jan-25 22:32N 40°25' W 073°41'9 9.3
2015-Jan-25 21:32N 40°28' W 073°53'1110.9
2015-Jan-25 20:33N 40°36' W 074°03'2 2.3
2015-Jan-25 19:33N 40°38' W 074°04'0 0.1
2015-Jan-25 18:30N 40°38' W 074°04'0 0.1
2015-Jan-25 17:33N 40°38' W 074°04'0 0.0
2015-Jan-25 16:33N 40°38' W 074°04'0 0.0
2015-Jan-25 15:30N 40°39' W 074°04'0 0.1
2015-Jan-25 14:30N 40°38' W 074°04'0 0.2
2015-Jan-25 13:30N 40°38' W 074°04'0 0.1
2015-Jan-25 12:30N 40°38' W 074°04'0 0.0
2015-Jan-25 11:30N 40°38' W 074°04'0 0.0
2015-Jan-25 10:30N 40°38' W 074°04'0 0.0
2015-Jan-25 09:30N 40°38' W 074°04'0 0.0
2015-Jan-25 08:30N 40°38' W 074°04'0 0.0
2015-Jan-25 07:30N 40°38' W 074°04'0 0.0
2015-Jan-25 06:30N 40°38' W 074°04'0 0.2
2015-Jan-25 05:33N 40°38' W 074°04'1 0.9
2015-Jan-25 04:33N 40°38' W 074°03'8 8.3
2015-Jan-25 03:32N 40°29' W 074°03'8 7.8
2015-Jan-25 02:32N 40°30' W 074°13'2 1.8
2015-Jan-25 01:26N 40°31' W 074°15'0 0.0
2015-Jan-24 04:10N 40°31' W 074°15'0 0.0
2015-Jan-24 02:19N 40°31' W 074°15'0 0.0
2015-Jan-24 01:13N 40°31' W 074°15'0 0.0
2015-Jan-23 22:04N 40°31' W 074°15'0 0.0
2015-Jan-23 18:19N 40°31' W 074°15'0 0.0
2015-Jan-23 13:28N 40°31' W 074°15'0 0.0
2015-Jan-23 03:28N 40°31' W 074°15'0 0.0
2015-Jan-23 02:13N 40°31' W 074°15'3 0.3
2015-Jan-22 13:29N 40°30' W 074°11'8 9.1
2015-Jan-22 12:33N 40°29' W 074°00'13 6.6
2015-Jan-22 10:33N 40°29' W 073°43'1 0.3
2015-Jan-22 06:33N 40°29' W 073°42'10 8.3
2015-Jan-22 05:21N 40°19' W 073°46'9 9.9
2015-Jan-22 04:24N 40°10' W 073°44'1311.5
2015-Jan-22 03:17N 39°57' W 073°42'  
Track history (hours):
 
Tides and Currents Weather Stations Pressure Air Temp Water Temp Dewpoint Dewpoint Depression Visibility Wind Speed Wind Dir Waves Ship Positions

Barkald

Last reported at 2015-Jan-26 17:34 UTC. Time now 2015-Jan-26 18:29 UTC.
Position N 41°04' W 073°15'.

Length 189 m; draft 7.3 m.

MMSI: 538002409.

Date/timePositionNaut miles runAvg speedWind from/ knotsBaromVisibWave heightAir tempDewpointWater temp
2015-Jan-26 17:34N 41°04' W 073°15'1010.1
2015-Jan-26 16:33N 41°06' W 073°02'1414.5
2015-Jan-26 15:33N 41°09' W 072°43'1413.9
2015-Jan-26 14:33N 41°10' W 072°25'1312.7
2015-Jan-26 13:34N 41°14' W 072°09'1111.5
2015-Jan-26 12:33N 41°14' W 071°53'1313.2
2015-Jan-26 11:33N 41°17' W 071°36'8 7.6
2015-Jan-26 10:33N 41°11' W 071°29'10 9.6
2015-Jan-26 09:33N 41°01' W 071°29'10 9.9
2015-Jan-26 08:33N 40°52' W 071°33'1010.0
2015-Jan-26 07:33N 40°42' W 071°36'1010.3
2015-Jan-26 06:33N 40°32' W 071°40'1111.1
2015-Jan-26 05:33N 40°23' W 071°49'1312.6
2015-Jan-26 04:33N 40°23' W 072°05'1212.5
2015-Jan-26 03:33N 40°23' W 072°22'1312.6
2015-Jan-26 02:33N 40°22' W 072°38'1612.7
2015-Jan-26 01:19N 40°22' W 072°59'1312.8
2015-Jan-26 00:18N 40°23' W 073°16'1212.1
2015-Jan-25 23:17N 40°24' W 073°32'7 9.7
2015-Jan-25 22:32N 40°25' W 073°41'9 9.3
2015-Jan-25 21:32N 40°28' W 073°53'1110.9
2015-Jan-25 20:33N 40°36' W 074°03'2 2.3
2015-Jan-25 19:33N 40°38' W 074°04'0 0.1
2015-Jan-25 18:30N 40°38' W 074°04'0 0.1
2015-Jan-25 17:33N 40°38' W 074°04'0 0.0
2015-Jan-25 16:33N 40°38' W 074°04'0 0.0
2015-Jan-25 15:30N 40°39' W 074°04'0 0.1
2015-Jan-25 14:30N 40°38' W 074°04'0 0.2
2015-Jan-25 13:30N 40°38' W 074°04'0 0.1
2015-Jan-25 12:30N 40°38' W 074°04'0 0.0
2015-Jan-25 11:30N 40°38' W 074°04'0 0.0
2015-Jan-25 10:30N 40°38' W 074°04'0 0.0
2015-Jan-25 09:30N 40°38' W 074°04'0 0.0
2015-Jan-25 08:30N 40°38' W 074°04'0 0.0
2015-Jan-25 07:30N 40°38' W 074°04'0 0.0
2015-Jan-25 06:30N 40°38' W 074°04'0 0.2
2015-Jan-25 05:33N 40°38' W 074°04'1 0.9
2015-Jan-25 04:33N 40°38' W 074°03'8 8.3
2015-Jan-25 03:32N 40°29' W 074°03'8 7.8
2015-Jan-25 02:32N 40°30' W 074°13'2 1.8
2015-Jan-25 01:26N 40°31' W 074°15'0 0.0
2015-Jan-24 04:10N 40°31' W 074°15'0 0.0
2015-Jan-24 02:19N 40°31' W 074°15'0 0.0
2015-Jan-24 01:13N 40°31' W 074°15'0 0.0
2015-Jan-23 22:04N 40°31' W 074°15'0 0.0
2015-Jan-23 18:19N 40°31' W 074°15'0 0.0
2015-Jan-23 13:28N 40°31' W 074°15'0 0.0
2015-Jan-23 03:28N 40°31' W 074°15'0 0.0
2015-Jan-23 02:13N 40°31' W 074°15'3 0.3
2015-Jan-22 13:29N 40°30' W 074°11'8 9.1
2015-Jan-22 12:33N 40°29' W 074°00'13 6.6
2015-Jan-22 10:33N 40°29' W 073°43'1 0.3
2015-Jan-22 06:33N 40°29' W 073°42'10 8.3
2015-Jan-22 05:21N 40°19' W 073°46'9 9.9
2015-Jan-22 04:24N 40°10' W 073°44'1311.5
2015-Jan-22 03:17N 39°57' W 073°42'  

Dump ship's entire track history